sensor_id;sensor_type;location;lat;lon;timestamp;temperature;humidity
41294;DHT22;27037;52.010;4.446;2023-08-07T00:00:36;14.80;99.90
41294;DHT22;27037;52.010;4.446;2023-08-07T00:03:02;14.80;99.90
41294;DHT22;27037;52.010;4.446;2023-08-07T00:05:28;14.80;99.90
41294;DHT22;27037;52.010;4.446;2023-08-07T00:07:54;14.90;99.90
41294;DHT22;27037;52.010;4.446;2023-08-07T00:10:20;14.90;99.90
41294;DHT22;27037;52.010;4.446;2023-08-07T00:12:45;14.80;99.90
41294;DHT22;27037;52.010;4.446;2023-08-07T00:15:11;14.70;99.90
41294;DHT22;27037;52.010;4.446;2023-08-07T00:17:37;14.60;99.90
41294;DHT22;27037;52.010;4.446;2023-08-07T00:20:03;14.50;99.90
41294;DHT22;27037;52.010;4.446;2023-08-07T00:22:29;14.40;99.90
41294;DHT22;27037;52.010;4.446;2023-08-07T00:24:55;14.30;99.90
41294;DHT22;27037;52.010;4.446;2023-08-07T00:27:21;14.30;99.90
41294;DHT22;27037;52.010;4.446;2023-08-07T00:29:46;14.20;99.90
41294;DHT22;27037;52.010;4.446;2023-08-07T00:32:12;14.20;99.90
41294;DHT22;27037;52.010;4.446;2023-08-07T00:34:37;14.20;99.90
41294;DHT22;27037;52.010;4.446;2023-08-07T00:37:03;14.20;99.90
41294;DHT22;27037;52.010;4.446;2023-08-07T00:39:29;14.30;99.90
41294;DHT22;27037;52.010;4.446;2023-08-07T00:41:54;14.30;99.90
41294;DHT22;27037;52.010;4.446;2023-08-07T00:44:20;14.30;99.90
41294;DHT22;27037;52.010;4.446;2023-08-07T00:46:46;14.40;99.90
41294;DHT22;27037;52.010;4.446;2023-08-07T00:49:12;14.40;99.90
41294;DHT22;27037;52.010;4.446;2023-08-07T00:51:39;14.40;99.90
41294;DHT22;27037;52.010;4.446;2023-08-07T00:54:05;14.50;99.90
41294;DHT22;27037;52.010;4.446;2023-08-07T00:56:33;14.50;99.90
41294;DHT22;27037;52.010;4.446;2023-08-07T00:58:59;14.60;99.90
41294;DHT22;27037;52.010;4.446;2023-08-07T01:01:26;14.70;99.90
41294;DHT22;27037;52.010;4.446;2023-08-07T01:03:51;14.60;99.90
41294;DHT22;27037;52.010;4.446;2023-08-07T01:06:17;14.70;99.90
41294;DHT22;27037;52.010;4.446;2023-08-07T01:08:43;14.70;99.90
41294;DHT22;27037;52.010;4.446;2023-08-07T01:11:22;14.70;99.90
41294;DHT22;27037;52.010;4.446;2023-08-07T01:17:08;14.80;99.90
41294;DHT22;27037;52.010;4.446;2023-08-07T01:19:35;14.80;99.90
41294;DHT22;27037;52.010;4.446;2023-08-07T01:22:08;14.80;99.90
41294;DHT22;27037;52.010;4.446;2023-08-07T01:24:35;14.80;99.90
41294;DHT22;27037;52.010;4.446;2023-08-07T01:29:59;14.90;99.90
41294;DHT22;27037;52.010;4.446;2023-08-07T01:35:02;14.90;99.90
41294;DHT22;27037;52.010;4.446;2023-08-07T01:37:31;14.90;99.90
41294;DHT22;27037;52.010;4.446;2023-08-07T01:39:58;14.90;99.90
41294;DHT22;27037;52.010;4.446;2023-08-07T01:42:25;15.00;99.90
41294;DHT22;27037;52.010;4.446;2023-08-07T01:44:51;15.00;99.90
41294;DHT22;27037;52.010;4.446;2023-08-07T01:47:18;15.00;99.90
41294;DHT22;27037;52.010;4.446;2023-08-07T01:49:43;15.00;99.90
41294;DHT22;27037;52.010;4.446;2023-08-07T01:52:09;15.00;99.90
41294;DHT22;27037;52.010;4.446;2023-08-07T01:54:36;15.00;99.90
41294;DHT22;27037;52.010;4.446;2023-08-07T01:57:02;15.00;99.90
41294;DHT22;27037;52.010;4.446;2023-08-07T01:59:28;15.00;99.90
41294;DHT22;27037;52.010;4.446;2023-08-07T02:01:53;15.00;99.90
41294;DHT22;27037;52.010;4.446;2023-08-07T02:04:19;15.00;99.90
41294;DHT22;27037;52.010;4.446;2023-08-07T02:06:45;15.00;99.90
41294;DHT22;27037;52.010;4.446;2023-08-07T02:09:10;15.00;99.90
41294;DHT22;27037;52.010;4.446;2023-08-07T02:11:36;15.00;99.90
41294;DHT22;27037;52.010;4.446;2023-08-07T02:14:01;15.00;99.90
41294;DHT22;27037;52.010;4.446;2023-08-07T02:16:28;15.00;99.90
41294;DHT22;27037;52.010;4.446;2023-08-07T02:18:53;15.00;99.90
41294;DHT22;27037;52.010;4.446;2023-08-07T02:21:19;15.00;99.90
41294;DHT22;27037;52.010;4.446;2023-08-07T02:23:45;15.00;99.90
41294;DHT22;27037;52.010;4.446;2023-08-07T02:26:10;15.00;99.90
41294;DHT22;27037;52.010;4.446;2023-08-07T02:28:36;15.00;99.90
41294;DHT22;27037;52.010;4.446;2023-08-07T02:31:02;15.00;99.90
41294;DHT22;27037;52.010;4.446;2023-08-07T02:33:27;15.10;99.90
41294;DHT22;27037;52.010;4.446;2023-08-07T02:35:56;15.10;99.90
41294;DHT22;27037;52.010;4.446;2023-08-07T02:38:21;15.10;99.90
41294;DHT22;27037;52.010;4.446;2023-08-07T02:40:47;15.10;99.90
41294;DHT22;27037;52.010;4.446;2023-08-07T02:43:12;15.10;99.90
41294;DHT22;27037;52.010;4.446;2023-08-07T02:45:38;15.00;99.90
41294;DHT22;27037;52.010;4.446;2023-08-07T02:48:04;15.00;99.90
41294;DHT22;27037;52.010;4.446;2023-08-07T02:50:30;15.00;99.90
41294;DHT22;27037;52.010;4.446;2023-08-07T02:52:58;15.00;99.90
41294;DHT22;27037;52.010;4.446;2023-08-07T02:55:24;15.00;99.90
41294;DHT22;27037;52.010;4.446;2023-08-07T02:57:49;14.80;99.90
41294;DHT22;27037;52.010;4.446;2023-08-07T03:00:15;14.70;99.90
41294;DHT22;27037;52.010;4.446;2023-08-07T03:02:41;14.70;99.90
41294;DHT22;27037;52.010;4.446;2023-08-07T03:05:07;14.60;99.90
41294;DHT22;27037;52.010;4.446;2023-08-07T03:07:33;14.50;99.90
41294;DHT22;27037;52.010;4.446;2023-08-07T03:09:58;14.50;99.90
41294;DHT22;27037;52.010;4.446;2023-08-07T03:12:24;14.50;99.90
41294;DHT22;27037;52.010;4.446;2023-08-07T03:14:50;14.50;99.90
41294;DHT22;27037;52.010;4.446;2023-08-07T03:17:15;14.50;99.90
41294;DHT22;27037;52.010;4.446;2023-08-07T03:19:42;14.40;99.90
41294;DHT22;27037;52.010;4.446;2023-08-07T03:22:08;14.40;99.90
41294;DHT22;27037;52.010;4.446;2023-08-07T03:24:34;14.30;99.90
41294;DHT22;27037;52.010;4.446;2023-08-07T03:27:00;14.30;99.90
41294;DHT22;27037;52.010;4.446;2023-08-07T03:29:25;14.30;99.90
41294;DHT22;27037;52.010;4.446;2023-08-07T03:31:51;14.30;99.90
41294;DHT22;27037;52.010;4.446;2023-08-07T03:34:17;14.30;99.90
41294;DHT22;27037;52.010;4.446;2023-08-07T03:36:43;14.30;99.90
41294;DHT22;27037;52.010;4.446;2023-08-07T03:39:08;14.30;99.90
41294;DHT22;27037;52.010;4.446;2023-08-07T03:41:35;14.30;99.90
41294;DHT22;27037;52.010;4.446;2023-08-07T03:44:01;14.30;99.90
41294;DHT22;27037;52.010;4.446;2023-08-07T03:46:26;14.30;99.90
41294;DHT22;27037;52.010;4.446;2023-08-07T03:48:52;14.30;99.90
41294;DHT22;27037;52.010;4.446;2023-08-07T03:51:18;14.30;99.90
41294;DHT22;27037;52.010;4.446;2023-08-07T03:53:44;14.30;99.90
41294;DHT22;27037;52.010;4.446;2023-08-07T03:56:09;14.40;99.90
41294;DHT22;27037;52.010;4.446;2023-08-07T03:58:35;14.40;99.90
41294;DHT22;27037;52.010;4.446;2023-08-07T04:01:01;14.40;99.90
41294;DHT22;27037;52.010;4.446;2023-08-07T04:03:26;14.40;99.90
41294;DHT22;27037;52.010;4.446;2023-08-07T04:05:53;14.50;99.90
41294;DHT22;27037;52.010;4.446;2023-08-07T04:08:19;14.60;99.90
41294;DHT22;27037;52.010;4.446;2023-08-07T04:10:45;14.60;99.90
41294;DHT22;27037;52.010;4.446;2023-08-07T04:13:11;14.60;99.90
41294;DHT22;27037;52.010;4.446;2023-08-07T04:15:36;14.60;99.90
41294;DHT22;27037;52.010;4.446;2023-08-07T04:18:02;14.70;99.90
41294;DHT22;27037;52.010;4.446;2023-08-07T04:20:28;14.70;99.90
41294;DHT22;27037;52.010;4.446;2023-08-07T04:22:53;14.80;99.90
41294;DHT22;27037;52.010;4.446;2023-08-07T04:25:19;14.80;99.90
41294;DHT22;27037;52.010;4.446;2023-08-07T04:27:44;14.80;99.90
41294;DHT22;27037;52.010;4.446;2023-08-07T04:30:10;14.80;99.90
41294;DHT22;27037;52.010;4.446;2023-08-07T04:32:36;14.90;99.90
41294;DHT22;27037;52.010;4.446;2023-08-07T04:35:02;14.90;99.90
41294;DHT22;27037;52.010;4.446;2023-08-07T04:37:28;14.90;99.90
41294;DHT22;27037;52.010;4.446;2023-08-07T04:39:55;14.90;99.90
41294;DHT22;27037;52.010;4.446;2023-08-07T04:42:21;14.90;99.90
41294;DHT22;27037;52.010;4.446;2023-08-07T04:44:47;14.90;99.90
41294;DHT22;27037;52.010;4.446;2023-08-07T04:47:12;14.90;99.90
41294;DHT22;27037;52.010;4.446;2023-08-07T04:49:38;14.90;99.90
41294;DHT22;27037;52.010;4.446;2023-08-07T04:52:04;14.90;99.90
41294;DHT22;27037;52.010;4.446;2023-08-07T04:54:29;14.90;99.90
41294;DHT22;27037;52.010;4.446;2023-08-07T04:56:55;14.90;99.90
41294;DHT22;27037;52.010;4.446;2023-08-07T04:59:20;14.90;99.90
41294;DHT22;27037;52.010;4.446;2023-08-07T05:01:46;14.90;99.90
41294;DHT22;27037;52.010;4.446;2023-08-07T05:04:12;14.90;99.90
41294;DHT22;27037;52.010;4.446;2023-08-07T05:06:37;14.90;99.90
41294;DHT22;27037;52.010;4.446;2023-08-07T05:09:03;14.90;99.90
41294;DHT22;27037;52.010;4.446;2023-08-07T05:11:29;15.00;99.90
41294;DHT22;27037;52.010;4.446;2023-08-07T05:13:54;14.90;99.90
41294;DHT22;27037;52.010;4.446;2023-08-07T05:16:20;14.90;99.90
41294;DHT22;27037;52.010;4.446;2023-08-07T05:18:46;15.00;99.90
41294;DHT22;27037;52.010;4.446;2023-08-07T05:21:12;14.90;99.90
41294;DHT22;27037;52.010;4.446;2023-08-07T05:23:37;14.90;99.90
41294;DHT22;27037;52.010;4.446;2023-08-07T05:26:03;14.90;99.90
41294;DHT22;27037;52.010;4.446;2023-08-07T05:28:28;15.00;99.90
41294;DHT22;27037;52.010;4.446;2023-08-07T05:30:54;15.00;99.90
41294;DHT22;27037;52.010;4.446;2023-08-07T05:33:20;15.00;99.90
41294;DHT22;27037;52.010;4.446;2023-08-07T05:35:45;15.10;99.90
41294;DHT22;27037;52.010;4.446;2023-08-07T05:38:11;15.10;99.90
41294;DHT22;27037;52.010;4.446;2023-08-07T05:40:36;15.10;99.90
41294;DHT22;27037;52.010;4.446;2023-08-07T05:43:03;15.10;99.90
41294;DHT22;27037;52.010;4.446;2023-08-07T05:45:28;15.20;99.90
41294;DHT22;27037;52.010;4.446;2023-08-07T05:47:54;15.20;99.90
41294;DHT22;27037;52.010;4.446;2023-08-07T05:50:20;15.20;99.90
41294;DHT22;27037;52.010;4.446;2023-08-07T05:52:45;15.30;99.90
41294;DHT22;27037;52.010;4.446;2023-08-07T05:55:11;15.30;99.90
41294;DHT22;27037;52.010;4.446;2023-08-07T05:57:36;15.30;99.90
41294;DHT22;27037;52.010;4.446;2023-08-07T06:00:03;15.30;99.90
41294;DHT22;27037;52.010;4.446;2023-08-07T06:02:28;15.40;99.90
41294;DHT22;27037;52.010;4.446;2023-08-07T06:04:54;15.50;99.90
41294;DHT22;27037;52.010;4.446;2023-08-07T06:07:20;15.50;99.90
41294;DHT22;27037;52.010;4.446;2023-08-07T06:09:45;15.50;99.90
41294;DHT22;27037;52.010;4.446;2023-08-07T06:12:11;15.50;99.90
41294;DHT22;27037;52.010;4.446;2023-08-07T06:14:37;15.50;99.90
41294;DHT22;27037;52.010;4.446;2023-08-07T06:17:04;15.50;99.90
41294;DHT22;27037;52.010;4.446;2023-08-07T06:19:29;15.50;99.90
41294;DHT22;27037;52.010;4.446;2023-08-07T06:21:55;15.50;99.90
41294;DHT22;27037;52.010;4.446;2023-08-07T06:24:21;15.50;99.90
41294;DHT22;27037;52.010;4.446;2023-08-07T06:26:47;15.50;99.90
41294;DHT22;27037;52.010;4.446;2023-08-07T06:29:12;15.50;99.90
41294;DHT22;27037;52.010;4.446;2023-08-07T06:31:38;15.50;99.90
41294;DHT22;27037;52.010;4.446;2023-08-07T06:34:04;15.60;99.90
41294;DHT22;27037;52.010;4.446;2023-08-07T06:36:29;15.50;99.90
41294;DHT22;27037;52.010;4.446;2023-08-07T06:38:55;15.60;99.90
41294;DHT22;27037;52.010;4.446;2023-08-07T06:41:21;15.60;99.90
41294;DHT22;27037;52.010;4.446;2023-08-07T06:43:46;15.60;99.90
41294;DHT22;27037;52.010;4.446;2023-08-07T06:46:12;15.70;99.90
41294;DHT22;27037;52.010;4.446;2023-08-07T06:48:38;15.70;99.90
41294;DHT22;27037;52.010;4.446;2023-08-07T06:51:04;15.70;99.90
41294;DHT22;27037;52.010;4.446;2023-08-07T06:53:29;15.80;99.90
41294;DHT22;27037;52.010;4.446;2023-08-07T06:55:55;15.90;99.90
41294;DHT22;27037;52.010;4.446;2023-08-07T06:58:20;16.00;99.90
41294;DHT22;27037;52.010;4.446;2023-08-07T07:00:46;16.00;99.90
41294;DHT22;27037;52.010;4.446;2023-08-07T07:03:12;16.10;99.90
41294;DHT22;27037;52.010;4.446;2023-08-07T07:05:37;16.00;99.90
41294;DHT22;27037;52.010;4.446;2023-08-07T07:08:03;16.00;99.90
41294;DHT22;27037;52.010;4.446;2023-08-07T07:10:29;16.00;99.90
41294;DHT22;27037;52.010;4.446;2023-08-07T07:12:55;16.00;99.90
41294;DHT22;27037;52.010;4.446;2023-08-07T07:15:21;16.00;99.90
41294;DHT22;27037;52.010;4.446;2023-08-07T07:17:46;16.10;99.90
41294;DHT22;27037;52.010;4.446;2023-08-07T07:20:12;16.20;99.90
41294;DHT22;27037;52.010;4.446;2023-08-07T07:22:38;16.30;99.90
41294;DHT22;27037;52.010;4.446;2023-08-07T07:25:04;16.30;99.90
41294;DHT22;27037;52.010;4.446;2023-08-07T07:27:30;16.40;99.90
41294;DHT22;27037;52.010;4.446;2023-08-07T07:29:55;16.50;99.90
41294;DHT22;27037;52.010;4.446;2023-08-07T07:32:21;16.60;99.90
41294;DHT22;27037;52.010;4.446;2023-08-07T07:34:47;16.60;99.90
41294;DHT22;27037;52.010;4.446;2023-08-07T07:37:13;16.70;99.90
41294;DHT22;27037;52.010;4.446;2023-08-07T07:39:39;16.70;99.90
41294;DHT22;27037;52.010;4.446;2023-08-07T07:42:06;16.70;99.90
41294;DHT22;27037;52.010;4.446;2023-08-07T07:44:32;16.70;99.90
41294;DHT22;27037;52.010;4.446;2023-08-07T07:46:59;16.70;99.90
41294;DHT22;27037;52.010;4.446;2023-08-07T07:49:25;16.80;99.90
41294;DHT22;27037;52.010;4.446;2023-08-07T07:51:50;16.90;99.90
41294;DHT22;27037;52.010;4.446;2023-08-07T07:54:16;17.00;99.90
41294;DHT22;27037;52.010;4.446;2023-08-07T07:56:42;17.20;99.90
41294;DHT22;27037;52.010;4.446;2023-08-07T07:59:08;17.40;99.90
41294;DHT22;27037;52.010;4.446;2023-08-07T08:01:34;17.50;99.90
41294;DHT22;27037;52.010;4.446;2023-08-07T08:03:59;17.50;99.90
41294;DHT22;27037;52.010;4.446;2023-08-07T08:06:25;17.60;99.90
41294;DHT22;27037;52.010;4.446;2023-08-07T08:08:51;17.60;99.90
41294;DHT22;27037;52.010;4.446;2023-08-07T08:11:16;17.60;99.90
41294;DHT22;27037;52.010;4.446;2023-08-07T08:13:43;17.60;99.90
41294;DHT22;27037;52.010;4.446;2023-08-07T08:16:08;17.50;99.90
41294;DHT22;27037;52.010;4.446;2023-08-07T08:18:34;17.40;99.90
41294;DHT22;27037;52.010;4.446;2023-08-07T08:21:00;17.40;99.90
41294;DHT22;27037;52.010;4.446;2023-08-07T08:23:26;17.40;99.90
41294;DHT22;27037;52.010;4.446;2023-08-07T08:25:51;17.50;99.90
41294;DHT22;27037;52.010;4.446;2023-08-07T08:28:18;17.70;99.90
41294;DHT22;27037;52.010;4.446;2023-08-07T08:30:43;17.90;99.90
41294;DHT22;27037;52.010;4.446;2023-08-07T08:33:09;18.00;99.90
41294;DHT22;27037;52.010;4.446;2023-08-07T08:35:38;18.20;99.90
41294;DHT22;27037;52.010;4.446;2023-08-07T08:38:03;18.40;99.90
41294;DHT22;27037;52.010;4.446;2023-08-07T08:40:30;18.50;99.90
41294;DHT22;27037;52.010;4.446;2023-08-07T08:42:56;18.60;99.90
41294;DHT22;27037;52.010;4.446;2023-08-07T08:45:26;18.70;99.90
41294;DHT22;27037;52.010;4.446;2023-08-07T08:47:55;18.80;99.90
41294;DHT22;27037;52.010;4.446;2023-08-07T08:50:23;18.90;99.90
41294;DHT22;27037;52.010;4.446;2023-08-07T08:52:51;19.00;99.90
41294;DHT22;27037;52.010;4.446;2023-08-07T08:55:20;18.90;99.90
41294;DHT22;27037;52.010;4.446;2023-08-07T08:57:46;18.80;99.90
41294;DHT22;27037;52.010;4.446;2023-08-07T09:00:13;18.80;99.90
41294;DHT22;27037;52.010;4.446;2023-08-07T09:02:49;18.60;99.90
41294;DHT22;27037;52.010;4.446;2023-08-07T09:05:17;18.50;99.90
41294;DHT22;27037;52.010;4.446;2023-08-07T09:07:43;18.50;99.90
41294;DHT22;27037;52.010;4.446;2023-08-07T09:10:16;18.50;99.90
41294;DHT22;27037;52.010;4.446;2023-08-07T09:12:52;18.60;99.90
41294;DHT22;27037;52.010;4.446;2023-08-07T09:15:19;18.70;99.90
41294;DHT22;27037;52.010;4.446;2023-08-07T09:17:47;18.70;99.90
41294;DHT22;27037;52.010;4.446;2023-08-07T09:20:14;18.70;99.90
41294;DHT22;27037;52.010;4.446;2023-08-07T09:22:41;18.60;99.90
41294;DHT22;27037;52.010;4.446;2023-08-07T09:25:07;18.50;99.90
41294;DHT22;27037;52.010;4.446;2023-08-07T09:27:32;18.50;99.90
41294;DHT22;27037;52.010;4.446;2023-08-07T09:29:59;18.50;99.90
41294;DHT22;27037;52.010;4.446;2023-08-07T09:32:25;18.50;99.90
41294;DHT22;27037;52.010;4.446;2023-08-07T09:34:51;18.60;99.90
41294;DHT22;27037;52.010;4.446;2023-08-07T09:37:19;18.70;99.90
41294;DHT22;27037;52.010;4.446;2023-08-07T09:39:46;18.80;99.90
41294;DHT22;27037;52.010;4.446;2023-08-07T09:42:17;19.00;99.90
41294;DHT22;27037;52.010;4.446;2023-08-07T09:44:44;19.20;99.90
41294;DHT22;27037;52.010;4.446;2023-08-07T09:47:17;19.30;99.90
41294;DHT22;27037;52.010;4.446;2023-08-07T09:49:44;19.40;99.90
41294;DHT22;27037;52.010;4.446;2023-08-07T09:52:12;19.60;99.90
41294;DHT22;27037;52.010;4.446;2023-08-07T09:54:43;19.80;99.90
41294;DHT22;27037;52.010;4.446;2023-08-07T09:57:09;19.80;99.90
41294;DHT22;27037;52.010;4.446;2023-08-07T09:59:35;19.80;99.90
41294;DHT22;27037;52.010;4.446;2023-08-07T10:02:02;19.70;99.90
41294;DHT22;27037;52.010;4.446;2023-08-07T10:04:28;19.80;99.90
41294;DHT22;27037;52.010;4.446;2023-08-07T10:06:54;19.90;99.90
41294;DHT22;27037;52.010;4.446;2023-08-07T10:09:21;20.00;99.90
41294;DHT22;27037;52.010;4.446;2023-08-07T10:11:48;20.00;99.80
41294;DHT22;27037;52.010;4.446;2023-08-07T10:14:14;20.10;99.90
41294;DHT22;27037;52.010;4.446;2023-08-07T10:16:41;20.10;99.90
41294;DHT22;27037;52.010;4.446;2023-08-07T10:19:07;20.10;99.90
41294;DHT22;27037;52.010;4.446;2023-08-07T10:21:36;20.20;99.90
41294;DHT22;27037;52.010;4.446;2023-08-07T10:24:07;20.20;99.90
41294;DHT22;27037;52.010;4.446;2023-08-07T10:26:34;20.10;99.90
41294;DHT22;27037;52.010;4.446;2023-08-07T10:29:02;20.00;99.90
41294;DHT22;27037;52.010;4.446;2023-08-07T10:31:30;20.00;99.90
41294;DHT22;27037;52.010;4.446;2023-08-07T10:33:57;20.10;99.60
41294;DHT22;27037;52.010;4.446;2023-08-07T10:36:23;20.20;99.80
41294;DHT22;27037;52.010;4.446;2023-08-07T10:38:49;20.30;99.10
41294;DHT22;27037;52.010;4.446;2023-08-07T10:41:18;20.30;98.40
41294;DHT22;27037;52.010;4.446;2023-08-07T10:43:45;20.20;98.50
41294;DHT22;27037;52.010;4.446;2023-08-07T10:46:20;20.20;99.30
41294;DHT22;27037;52.010;4.446;2023-08-07T10:48:54;20.20;99.60
41294;DHT22;27037;52.010;4.446;2023-08-07T10:51:28;20.20;99.80
41294;DHT22;27037;52.010;4.446;2023-08-07T10:53:56;20.40;99.90
41294;DHT22;27037;52.010;4.446;2023-08-07T10:56:32;20.40;99.90
41294;DHT22;27037;52.010;4.446;2023-08-07T10:59:11;20.40;99.80
41294;DHT22;27037;52.010;4.446;2023-08-07T11:01:41;20.50;98.20
41294;DHT22;27037;52.010;4.446;2023-08-07T11:04:12;20.40;97.00
41294;DHT22;27037;52.010;4.446;2023-08-07T11:06:39;20.40;97.50
41294;DHT22;27037;52.010;4.446;2023-08-07T11:09:07;20.40;98.00
41294;DHT22;27037;52.010;4.446;2023-08-07T11:11:40;20.50;97.50
41294;DHT22;27037;52.010;4.446;2023-08-07T11:14:10;20.70;95.90
41294;DHT22;27037;52.010;4.446;2023-08-07T11:16:37;20.70;95.20
41294;DHT22;27037;52.010;4.446;2023-08-07T11:19:03;20.70;95.80
41294;DHT22;27037;52.010;4.446;2023-08-07T11:21:33;20.90;96.50
41294;DHT22;27037;52.010;4.446;2023-08-07T11:23:59;20.90;96.20
41294;DHT22;27037;52.010;4.446;2023-08-07T11:26:25;20.80;96.40
41294;DHT22;27037;52.010;4.446;2023-08-07T11:28:56;20.70;96.80
41294;DHT22;27037;52.010;4.446;2023-08-07T11:31:22;20.60;97.70
41294;DHT22;27037;52.010;4.446;2023-08-07T11:33:56;20.70;98.10
41294;DHT22;27037;52.010;4.446;2023-08-07T11:36:25;20.70;98.40
41294;DHT22;27037;52.010;4.446;2023-08-07T11:38:51;20.70;98.20
41294;DHT22;27037;52.010;4.446;2023-08-07T11:41:17;20.70;98.70
41294;DHT22;27037;52.010;4.446;2023-08-07T11:43:44;20.70;99.20
41294;DHT22;27037;52.010;4.446;2023-08-07T11:46:12;20.70;99.70
41294;DHT22;27037;52.010;4.446;2023-08-07T11:48:39;20.70;99.90
41294;DHT22;27037;52.010;4.446;2023-08-07T11:51:06;20.80;99.90
41294;DHT22;27037;52.010;4.446;2023-08-07T11:53:33;21.00;99.90
41294;DHT22;27037;52.010;4.446;2023-08-07T11:56:02;21.30;99.90
41294;DHT22;27037;52.010;4.446;2023-08-07T11:58:34;21.30;99.60
41294;DHT22;27037;52.010;4.446;2023-08-07T12:01:08;21.40;99.70
41294;DHT22;27037;52.010;4.446;2023-08-07T12:03:35;21.50;99.10
41294;DHT22;27037;52.010;4.446;2023-08-07T12:06:05;21.40;97.70
41294;DHT22;27037;52.010;4.446;2023-08-07T12:08:40;21.30;98.90
41294;DHT22;27037;52.010;4.446;2023-08-07T12:11:11;21.40;99.10
41294;DHT22;27037;52.010;4.446;2023-08-07T12:13:45;21.60;99.30
41294;DHT22;27037;52.010;4.446;2023-08-07T12:16:11;21.70;99.40
41294;DHT22;27037;52.010;4.446;2023-08-07T12:18:47;21.70;98.60
41294;DHT22;27037;52.010;4.446;2023-08-07T12:21:16;21.60;98.40
41294;DHT22;27037;52.010;4.446;2023-08-07T12:23:44;21.30;98.00
41294;DHT22;27037;52.010;4.446;2023-08-07T12:26:10;21.00;98.70
41294;DHT22;27037;52.010;4.446;2023-08-07T12:28:36;21.00;99.50
41294;DHT22;27037;52.010;4.446;2023-08-07T12:31:02;20.90;99.90
41294;DHT22;27037;52.010;4.446;2023-08-07T12:33:31;20.70;99.90
41294;DHT22;27037;52.010;4.446;2023-08-07T12:35:57;20.70;99.90
41294;DHT22;27037;52.010;4.446;2023-08-07T12:38:23;20.60;99.90
41294;DHT22;27037;52.010;4.446;2023-08-07T12:40:49;20.60;99.90
41294;DHT22;27037;52.010;4.446;2023-08-07T12:43:15;20.60;99.90
41294;DHT22;27037;52.010;4.446;2023-08-07T12:45:41;20.50;99.90
41294;DHT22;27037;52.010;4.446;2023-08-07T12:48:07;20.50;99.90
41294;DHT22;27037;52.010;4.446;2023-08-07T12:50:33;20.30;99.90
41294;DHT22;27037;52.010;4.446;2023-08-07T12:52:59;20.00;99.90
41294;DHT22;27037;52.010;4.446;2023-08-07T12:55:25;19.80;99.90
41294;DHT22;27037;52.010;4.446;2023-08-07T12:57:52;19.40;99.90
41294;DHT22;27037;52.010;4.446;2023-08-07T13:00:18;19.20;99.90
41294;DHT22;27037;52.010;4.446;2023-08-07T13:02:45;19.00;99.90
41294;DHT22;27037;52.010;4.446;2023-08-07T13:05:12;18.80;99.90
41294;DHT22;27037;52.010;4.446;2023-08-07T13:07:39;18.70;99.90
41294;DHT22;27037;52.010;4.446;2023-08-07T13:10:06;18.50;99.90
41294;DHT22;27037;52.010;4.446;2023-08-07T13:12:36;18.60;99.90
41294;DHT22;27037;52.010;4.446;2023-08-07T13:15:06;18.70;99.90
41294;DHT22;27037;52.010;4.446;2023-08-07T13:17:33;19.00;99.90
41294;DHT22;27037;52.010;4.446;2023-08-07T13:20:00;19.20;99.90
41294;DHT22;27037;52.010;4.446;2023-08-07T13:22:26;19.30;99.90
41294;DHT22;27037;52.010;4.446;2023-08-07T13:24:52;19.40;99.90
41294;DHT22;27037;52.010;4.446;2023-08-07T13:27:18;19.40;99.90
41294;DHT22;27037;52.010;4.446;2023-08-07T13:29:44;19.20;99.90
41294;DHT22;27037;52.010;4.446;2023-08-07T13:32:09;19.20;99.90
41294;DHT22;27037;52.010;4.446;2023-08-07T13:34:36;19.20;99.90
41294;DHT22;27037;52.010;4.446;2023-08-07T13:37:03;19.20;99.90
41294;DHT22;27037;52.010;4.446;2023-08-07T13:39:28;19.40;99.90
41294;DHT22;27037;52.010;4.446;2023-08-07T13:41:54;19.40;99.90
41294;DHT22;27037;52.010;4.446;2023-08-07T13:44:20;19.40;99.90
41294;DHT22;27037;52.010;4.446;2023-08-07T13:46:46;19.40;99.90
41294;DHT22;27037;52.010;4.446;2023-08-07T13:49:13;19.40;99.90
41294;DHT22;27037;52.010;4.446;2023-08-07T13:51:39;19.40;99.90
41294;DHT22;27037;52.010;4.446;2023-08-07T13:54:05;19.50;99.90
41294;DHT22;27037;52.010;4.446;2023-08-07T13:56:31;19.70;99.90
41294;DHT22;27037;52.010;4.446;2023-08-07T13:58:56;19.70;99.90
41294;DHT22;27037;52.010;4.446;2023-08-07T14:01:22;19.70;99.90
41294;DHT22;27037;52.010;4.446;2023-08-07T14:03:48;19.80;99.90
41294;DHT22;27037;52.010;4.446;2023-08-07T14:06:13;19.90;99.90
41294;DHT22;27037;52.010;4.446;2023-08-07T14:08:39;20.00;99.90
41294;DHT22;27037;52.010;4.446;2023-08-07T14:11:04;20.00;99.90
41294;DHT22;27037;52.010;4.446;2023-08-07T14:13:31;20.00;99.90
41294;DHT22;27037;52.010;4.446;2023-08-07T14:15:57;20.00;99.90
41294;DHT22;27037;52.010;4.446;2023-08-07T14:18:22;20.10;99.90
41294;DHT22;27037;52.010;4.446;2023-08-07T14:20:48;20.20;99.90
41294;DHT22;27037;52.010;4.446;2023-08-07T14:23:13;20.10;99.90
41294;DHT22;27037;52.010;4.446;2023-08-07T14:25:39;20.10;99.90
41294;DHT22;27037;52.010;4.446;2023-08-07T14:28:05;20.10;99.90
41294;DHT22;27037;52.010;4.446;2023-08-07T14:30:33;20.20;99.90
41294;DHT22;27037;52.010;4.446;2023-08-07T14:32:59;20.30;99.90
41294;DHT22;27037;52.010;4.446;2023-08-07T14:35:24;20.30;99.90
41294;DHT22;27037;52.010;4.446;2023-08-07T14:37:50;20.20;99.90
41294;DHT22;27037;52.010;4.446;2023-08-07T14:40:15;20.20;99.90
41294;DHT22;27037;52.010;4.446;2023-08-07T14:42:41;20.30;99.90
41294;DHT22;27037;52.010;4.446;2023-08-07T14:45:07;20.30;99.90
41294;DHT22;27037;52.010;4.446;2023-08-07T14:47:33;20.40;99.90
41294;DHT22;27037;52.010;4.446;2023-08-07T14:49:59;20.40;99.90
41294;DHT22;27037;52.010;4.446;2023-08-07T14:52:24;20.50;99.90
41294;DHT22;27037;52.010;4.446;2023-08-07T14:54:50;20.70;99.90
41294;DHT22;27037;52.010;4.446;2023-08-07T14:57:16;20.80;99.90
41294;DHT22;27037;52.010;4.446;2023-08-07T14:59:41;20.70;99.90
41294;DHT22;27037;52.010;4.446;2023-08-07T15:02:07;20.60;99.90
41294;DHT22;27037;52.010;4.446;2023-08-07T15:04:33;20.40;99.90
41294;DHT22;27037;52.010;4.446;2023-08-07T15:06:58;20.30;99.90
41294;DHT22;27037;52.010;4.446;2023-08-07T15:09:24;20.10;99.90
41294;DHT22;27037;52.010;4.446;2023-08-07T15:11:50;19.90;99.90
41294;DHT22;27037;52.010;4.446;2023-08-07T15:14:17;19.80;99.90
41294;DHT22;27037;52.010;4.446;2023-08-07T15:16:43;19.90;99.90
41294;DHT22;27037;52.010;4.446;2023-08-07T15:19:08;19.90;99.90
41294;DHT22;27037;52.010;4.446;2023-08-07T15:21:34;19.90;99.90
41294;DHT22;27037;52.010;4.446;2023-08-07T15:24:00;20.00;99.90
41294;DHT22;27037;52.010;4.446;2023-08-07T15:26:25;20.00;99.90
41294;DHT22;27037;52.010;4.446;2023-08-07T15:28:51;20.00;99.90
41294;DHT22;27037;52.010;4.446;2023-08-07T15:31:16;20.00;99.90
41294;DHT22;27037;52.010;4.446;2023-08-07T15:33:42;20.00;99.90